sensor_id;sensor_type;location;lat;lon;timestamp;temperature;humidity
59075;DHT22;44860;53.020;6.738;2023-02-14T00:01:30;2.60;99.90
59075;DHT22;44860;53.020;6.738;2023-02-14T00:03:56;2.50;99.90
59075;DHT22;44860;53.020;6.738;2023-02-14T00:06:26;2.60;99.90
59075;DHT22;44860;53.020;6.738;2023-02-14T00:08:52;2.50;99.90
59075;DHT22;44860;53.020;6.738;2023-02-14T00:11:19;2.50;99.90
59075;DHT22;44860;53.020;6.738;2023-02-14T00:13:45;2.50;99.90
59075;DHT22;44860;53.020;6.738;2023-02-14T00:16:30;2.50;99.90
59075;DHT22;44860;53.020;6.738;2023-02-14T00:18:56;2.50;99.90
59075;DHT22;44860;53.020;6.738;2023-02-14T00:21:27;2.50;99.90
59075;DHT22;44860;53.020;6.738;2023-02-14T00:23:53;2.40;99.90
59075;DHT22;44860;53.020;6.738;2023-02-14T00:26:19;2.40;99.90
59075;DHT22;44860;53.020;6.738;2023-02-14T00:28:44;2.40;99.90
59075;DHT22;44860;53.020;6.738;2023-02-14T00:31:10;2.40;99.90
59075;DHT22;44860;53.020;6.738;2023-02-14T00:33:37;2.40;99.90
59075;DHT22;44860;53.020;6.738;2023-02-14T00:36:04;2.40;99.90
59075;DHT22;44860;53.020;6.738;2023-02-14T00:38:31;2.30;99.90
59075;DHT22;44860;53.020;6.738;2023-02-14T00:40:58;2.30;99.90
59075;DHT22;44860;53.020;6.738;2023-02-14T00:43:23;2.40;99.90
59075;DHT22;44860;53.020;6.738;2023-02-14T00:45:49;2.30;99.90
59075;DHT22;44860;53.020;6.738;2023-02-14T00:48:15;2.40;99.90
59075;DHT22;44860;53.020;6.738;2023-02-14T00:50:40;2.40;99.90
59075;DHT22;44860;53.020;6.738;2023-02-14T00:53:06;2.40;99.90
59075;DHT22;44860;53.020;6.738;2023-02-14T00:55:32;2.40;99.90
59075;DHT22;44860;53.020;6.738;2023-02-14T00:57:57;2.30;99.90
59075;DHT22;44860;53.020;6.738;2023-02-14T01:00:23;2.30;99.90
59075;DHT22;44860;53.020;6.738;2023-02-14T01:02:49;2.40;99.90
59075;DHT22;44860;53.020;6.738;2023-02-14T01:05:14;2.40;99.90
59075;DHT22;44860;53.020;6.738;2023-02-14T01:07:40;2.40;99.90
59075;DHT22;44860;53.020;6.738;2023-02-14T01:10:06;2.30;99.90
59075;DHT22;44860;53.020;6.738;2023-02-14T01:12:31;2.30;99.90
59075;DHT22;44860;53.020;6.738;2023-02-14T01:14:57;2.30;99.90
59075;DHT22;44860;53.020;6.738;2023-02-14T01:17:23;2.30;99.90
59075;DHT22;44860;53.020;6.738;2023-02-14T01:19:51;2.30;99.90
59075;DHT22;44860;53.020;6.738;2023-02-14T01:22:17;2.30;99.90
59075;DHT22;44860;53.020;6.738;2023-02-14T01:24:43;2.30;99.90
59075;DHT22;44860;53.020;6.738;2023-02-14T01:27:09;2.40;99.90
59075;DHT22;44860;53.020;6.738;2023-02-14T01:29:34;2.40;99.90
59075;DHT22;44860;53.020;6.738;2023-02-14T01:32:00;2.40;99.90
59075;DHT22;44860;53.020;6.738;2023-02-14T01:34:26;2.40;99.90
59075;DHT22;44860;53.020;6.738;2023-02-14T01:36:51;2.40;99.90
59075;DHT22;44860;53.020;6.738;2023-02-14T01:39:17;2.40;99.90
59075;DHT22;44860;53.020;6.738;2023-02-14T01:41:44;2.40;99.90
59075;DHT22;44860;53.020;6.738;2023-02-14T01:46:39;2.40;99.90
59075;DHT22;44860;53.020;6.738;2023-02-14T01:49:16;2.30;99.90
59075;DHT22;44860;53.020;6.738;2023-02-14T01:52:30;2.30;99.90
59075;DHT22;44860;53.020;6.738;2023-02-14T01:54:42;2.30;99.90
59075;DHT22;44860;53.020;6.738;2023-02-14T01:57:10;2.30;99.90
59075;DHT22;44860;53.020;6.738;2023-02-14T01:59:42;2.30;99.90
59075;DHT22;44860;53.020;6.738;2023-02-14T02:02:10;2.30;99.90
59075;DHT22;44860;53.020;6.738;2023-02-14T02:04:43;2.30;99.90
59075;DHT22;44860;53.020;6.738;2023-02-14T02:07:13;2.30;99.90
59075;DHT22;44860;53.020;6.738;2023-02-14T02:10:03;2.30;99.90
59075;DHT22;44860;53.020;6.738;2023-02-14T02:12:28;2.30;99.90
59075;DHT22;44860;53.020;6.738;2023-02-14T02:14:55;2.30;99.90
59075;DHT22;44860;53.020;6.738;2023-02-14T02:17:50;2.30;99.90
59075;DHT22;44860;53.020;6.738;2023-02-14T02:23:00;2.30;99.90
59075;DHT22;44860;53.020;6.738;2023-02-14T02:39:38;2.30;99.90
59075;DHT22;44860;53.020;6.738;2023-02-14T02:48:06;2.40;99.90
59075;DHT22;44860;53.020;6.738;2023-02-14T02:50:47;2.30;99.90
59075;DHT22;44860;53.020;6.738;2023-02-14T02:53:44;2.40;99.90
59075;DHT22;44860;53.020;6.738;2023-02-14T02:56:19;2.30;99.90
59075;DHT22;44860;53.020;6.738;2023-02-14T02:59:21;2.30;99.90
59075;DHT22;44860;53.020;6.738;2023-02-14T03:01:53;2.30;99.90
59075;DHT22;44860;53.020;6.738;2023-02-14T03:04:20;2.30;99.90
59075;DHT22;44860;53.020;6.738;2023-02-14T03:07:05;2.40;99.90
59075;DHT22;44860;53.020;6.738;2023-02-14T03:09:53;2.40;99.90
59075;DHT22;44860;53.020;6.738;2023-02-14T03:20:29;2.30;99.90
59075;DHT22;44860;53.020;6.738;2023-02-14T03:23:10;2.30;99.90
59075;DHT22;44860;53.020;6.738;2023-02-14T03:25:43;2.30;99.90
59075;DHT22;44860;53.020;6.738;2023-02-14T03:28:38;2.30;99.90
59075;DHT22;44860;53.020;6.738;2023-02-14T03:33:57;2.20;99.90
59075;DHT22;44860;53.020;6.738;2023-02-14T03:42:32;2.30;99.90
59075;DHT22;44860;53.020;6.738;2023-02-14T03:45:00;2.20;99.90
59075;DHT22;44860;53.020;6.738;2023-02-14T03:47:30;2.30;99.90
59075;DHT22;44860;53.020;6.738;2023-02-14T03:50:09;2.30;99.90
59075;DHT22;44860;53.020;6.738;2023-02-14T03:52:36;2.20;99.90
59075;DHT22;44860;53.020;6.738;2023-02-14T03:55:05;2.20;99.90
59075;DHT22;44860;53.020;6.738;2023-02-14T04:00:10;2.30;99.90
59075;DHT22;44860;53.020;6.738;2023-02-14T04:02:42;2.20;99.90
59075;DHT22;44860;53.020;6.738;2023-02-14T04:05:16;2.20;99.90
59075;DHT22;44860;53.020;6.738;2023-02-14T04:07:50;2.30;99.90
59075;DHT22;44860;53.020;6.738;2023-02-14T04:10:17;2.20;99.90
59075;DHT22;44860;53.020;6.738;2023-02-14T04:12:43;2.20;99.90
59075;DHT22;44860;53.020;6.738;2023-02-14T04:15:09;2.20;99.90
59075;DHT22;44860;53.020;6.738;2023-02-14T04:17:35;2.20;99.90
59075;DHT22;44860;53.020;6.738;2023-02-14T04:20:20;2.10;99.90
59075;DHT22;44860;53.020;6.738;2023-02-14T04:22:46;2.10;99.90
59075;DHT22;44860;53.020;6.738;2023-02-14T04:25:12;2.10;99.90
59075;DHT22;44860;53.020;6.738;2023-02-14T04:27:38;2.10;99.90
59075;DHT22;44860;53.020;6.738;2023-02-14T04:30:05;2.00;99.90
59075;DHT22;44860;53.020;6.738;2023-02-14T04:32:30;2.00;99.90
59075;DHT22;44860;53.020;6.738;2023-02-14T04:34:56;2.00;99.90
59075;DHT22;44860;53.020;6.738;2023-02-14T04:37:22;2.00;99.90
59075;DHT22;44860;53.020;6.738;2023-02-14T04:39:47;2.00;99.90
59075;DHT22;44860;53.020;6.738;2023-02-14T04:42:13;2.00;99.90
59075;DHT22;44860;53.020;6.738;2023-02-14T04:44:39;2.00;99.90
59075;DHT22;44860;53.020;6.738;2023-02-14T04:47:06;2.00;99.90
59075;DHT22;44860;53.020;6.738;2023-02-14T04:49:32;2.00;99.90
59075;DHT22;44860;53.020;6.738;2023-02-14T04:51:58;2.00;99.90
59075;DHT22;44860;53.020;6.738;2023-02-14T04:54:24;1.90;99.90
59075;DHT22;44860;53.020;6.738;2023-02-14T04:56:50;1.90;99.90
59075;DHT22;44860;53.020;6.738;2023-02-14T04:59:16;1.90;99.90
59075;DHT22;44860;53.020;6.738;2023-02-14T05:01:41;1.90;99.90
59075;DHT22;44860;53.020;6.738;2023-02-14T05:04:07;1.90;99.90
59075;DHT22;44860;53.020;6.738;2023-02-14T05:06:33;1.90;99.90
59075;DHT22;44860;53.020;6.738;2023-02-14T05:09:00;1.90;99.90
59075;DHT22;44860;53.020;6.738;2023-02-14T05:11:27;1.90;99.90
59075;DHT22;44860;53.020;6.738;2023-02-14T05:13:53;1.90;99.90
59075;DHT22;44860;53.020;6.738;2023-02-14T05:16:18;1.90;99.90
59075;DHT22;44860;53.020;6.738;2023-02-14T05:18:44;1.90;99.90
59075;DHT22;44860;53.020;6.738;2023-02-14T05:21:10;1.90;99.90
59075;DHT22;44860;53.020;6.738;2023-02-14T05:23:36;1.90;99.90
59075;DHT22;44860;53.020;6.738;2023-02-14T05:26:02;1.90;99.90
59075;DHT22;44860;53.020;6.738;2023-02-14T05:28:28;1.90;99.90
59075;DHT22;44860;53.020;6.738;2023-02-14T05:30:54;1.90;99.90
59075;DHT22;44860;53.020;6.738;2023-02-14T05:33:21;1.90;99.90
59075;DHT22;44860;53.020;6.738;2023-02-14T05:35:47;1.90;99.90
59075;DHT22;44860;53.020;6.738;2023-02-14T05:38:13;1.90;99.90
59075;DHT22;44860;53.020;6.738;2023-02-14T05:40:39;2.00;99.90
59075;DHT22;44860;53.020;6.738;2023-02-14T05:43:06;2.00;99.90
59075;DHT22;44860;53.020;6.738;2023-02-14T05:45:31;1.90;99.90
59075;DHT22;44860;53.020;6.738;2023-02-14T05:47:57;1.90;99.90
59075;DHT22;44860;53.020;6.738;2023-02-14T05:50:23;1.90;99.90
59075;DHT22;44860;53.020;6.738;2023-02-14T05:52:48;2.00;99.90
59075;DHT22;44860;53.020;6.738;2023-02-14T05:55:14;1.90;99.90
59075;DHT22;44860;53.020;6.738;2023-02-14T05:57:40;1.90;99.90
59075;DHT22;44860;53.020;6.738;2023-02-14T06:00:07;1.90;99.90
59075;DHT22;44860;53.020;6.738;2023-02-14T06:02:32;1.90;99.90
59075;DHT22;44860;53.020;6.738;2023-02-14T06:04:58;1.80;99.90
59075;DHT22;44860;53.020;6.738;2023-02-14T06:07:24;1.90;99.90
59075;DHT22;44860;53.020;6.738;2023-02-14T06:09:49;1.90;99.90
59075;DHT22;44860;53.020;6.738;2023-02-14T06:12:15;1.90;99.90
59075;DHT22;44860;53.020;6.738;2023-02-14T06:14:41;1.90;99.90
59075;DHT22;44860;53.020;6.738;2023-02-14T06:17:10;1.90;99.90
59075;DHT22;44860;53.020;6.738;2023-02-14T06:19:36;1.90;99.90
59075;DHT22;44860;53.020;6.738;2023-02-14T06:22:02;1.90;99.90
59075;DHT22;44860;53.020;6.738;2023-02-14T06:24:28;1.90;99.90
59075;DHT22;44860;53.020;6.738;2023-02-14T06:26:54;1.90;99.90
59075;DHT22;44860;53.020;6.738;2023-02-14T06:29:19;1.90;99.90
59075;DHT22;44860;53.020;6.738;2023-02-14T06:31:45;1.90;99.90
59075;DHT22;44860;53.020;6.738;2023-02-14T06:34:11;1.90;99.90
59075;DHT22;44860;53.020;6.738;2023-02-14T06:36:37;2.00;99.90
59075;DHT22;44860;53.020;6.738;2023-02-14T06:39:03;1.90;99.90
59075;DHT22;44860;53.020;6.738;2023-02-14T06:41:28;1.90;99.90
59075;DHT22;44860;53.020;6.738;2023-02-14T06:43:54;2.00;99.90
59075;DHT22;44860;53.020;6.738;2023-02-14T06:46:20;2.00;99.90
59075;DHT22;44860;53.020;6.738;2023-02-14T06:48:46;2.00;99.90
59075;DHT22;44860;53.020;6.738;2023-02-14T06:51:12;2.00;99.90
59075;DHT22;44860;53.020;6.738;2023-02-14T06:53:38;2.00;99.90
59075;DHT22;44860;53.020;6.738;2023-02-14T06:56:04;2.00;99.90
59075;DHT22;44860;53.020;6.738;2023-02-14T06:58:30;2.00;99.90
59075;DHT22;44860;53.020;6.738;2023-02-14T07:00:59;2.00;99.90
59075;DHT22;44860;53.020;6.738;2023-02-14T07:03:25;2.00;99.90
59075;DHT22;44860;53.020;6.738;2023-02-14T07:05:52;2.00;99.90
59075;DHT22;44860;53.020;6.738;2023-02-14T07:08:18;2.00;99.90
59075;DHT22;44860;53.020;6.738;2023-02-14T07:10:45;2.00;99.90
59075;DHT22;44860;53.020;6.738;2023-02-14T07:13:10;1.90;99.90
59075;DHT22;44860;53.020;6.738;2023-02-14T07:15:36;1.90;99.90
59075;DHT22;44860;53.020;6.738;2023-02-14T07:18:02;1.90;99.90
59075;DHT22;44860;53.020;6.738;2023-02-14T07:20:28;1.90;99.90
59075;DHT22;44860;53.020;6.738;2023-02-14T07:22:53;1.90;99.90
59075;DHT22;44860;53.020;6.738;2023-02-14T07:25:19;1.90;99.90
59075;DHT22;44860;53.020;6.738;2023-02-14T07:27:45;1.80;99.90
59075;DHT22;44860;53.020;6.738;2023-02-14T07:30:11;1.80;99.90
59075;DHT22;44860;53.020;6.738;2023-02-14T07:32:38;1.90;99.90
59075;DHT22;44860;53.020;6.738;2023-02-14T07:35:04;1.80;99.90
59075;DHT22;44860;53.020;6.738;2023-02-14T07:37:33;1.80;99.90
59075;DHT22;44860;53.020;6.738;2023-02-14T07:39:59;1.70;99.90
59075;DHT22;44860;53.020;6.738;2023-02-14T07:42:25;1.70;99.90
59075;DHT22;44860;53.020;6.738;2023-02-14T07:44:51;1.70;99.90
59075;DHT22;44860;53.020;6.738;2023-02-14T07:47:16;1.70;99.90
59075;DHT22;44860;53.020;6.738;2023-02-14T07:49:42;1.70;99.90
59075;DHT22;44860;53.020;6.738;2023-02-14T07:52:08;1.70;99.90
59075;DHT22;44860;53.020;6.738;2023-02-14T07:54:33;1.70;99.90
59075;DHT22;44860;53.020;6.738;2023-02-14T07:56:59;1.70;99.90
59075;DHT22;44860;53.020;6.738;2023-02-14T07:59:25;1.80;99.90
59075;DHT22;44860;53.020;6.738;2023-02-14T08:01:50;1.70;99.90
59075;DHT22;44860;53.020;6.738;2023-02-14T08:04:16;1.70;99.90
59075;DHT22;44860;53.020;6.738;2023-02-14T08:06:42;1.70;99.90
59075;DHT22;44860;53.020;6.738;2023-02-14T08:09:08;1.70;99.90
59075;DHT22;44860;53.020;6.738;2023-02-14T08:11:35;1.70;99.90
59075;DHT22;44860;53.020;6.738;2023-02-14T08:14:20;1.70;99.90
59075;DHT22;44860;53.020;6.738;2023-02-14T08:16:45;1.70;99.90
59075;DHT22;44860;53.020;6.738;2023-02-14T08:19:11;1.70;99.90
59075;DHT22;44860;53.020;6.738;2023-02-14T08:21:37;1.70;99.90
59075;DHT22;44860;53.020;6.738;2023-02-14T08:24:03;1.80;99.90
59075;DHT22;44860;53.020;6.738;2023-02-14T08:26:28;1.70;99.90
59075;DHT22;44860;53.020;6.738;2023-02-14T08:28:54;1.80;99.90
59075;DHT22;44860;53.020;6.738;2023-02-14T08:31:28;1.80;99.90
59075;DHT22;44860;53.020;6.738;2023-02-14T08:33:55;1.80;99.90
59075;DHT22;44860;53.020;6.738;2023-02-14T08:36:20;1.80;99.90
59075;DHT22;44860;53.020;6.738;2023-02-14T08:38:47;1.80;99.90
59075;DHT22;44860;53.020;6.738;2023-02-14T08:41:14;1.80;99.90
59075;DHT22;44860;53.020;6.738;2023-02-14T08:43:41;1.80;99.90
59075;DHT22;44860;53.020;6.738;2023-02-14T08:46:06;1.90;99.90
59075;DHT22;44860;53.020;6.738;2023-02-14T08:48:33;1.80;99.90
59075;DHT22;44860;53.020;6.738;2023-02-14T08:51:04;1.90;99.90
59075;DHT22;44860;53.020;6.738;2023-02-14T08:53:30;1.90;99.90
59075;DHT22;44860;53.020;6.738;2023-02-14T08:55:55;1.90;99.90
59075;DHT22;44860;53.020;6.738;2023-02-14T08:58:21;1.90;99.90
59075;DHT22;44860;53.020;6.738;2023-02-14T09:00:47;2.00;99.90
59075;DHT22;44860;53.020;6.738;2023-02-14T09:03:13;2.10;99.90
59075;DHT22;44860;53.020;6.738;2023-02-14T09:05:38;2.20;99.90
59075;DHT22;44860;53.020;6.738;2023-02-14T09:08:04;2.30;99.90
59075;DHT22;44860;53.020;6.738;2023-02-14T09:10:30;2.40;99.90
59075;DHT22;44860;53.020;6.738;2023-02-14T09:12:56;2.50;99.90
59075;DHT22;44860;53.020;6.738;2023-02-14T09:15:21;2.60;99.90
59075;DHT22;44860;53.020;6.738;2023-02-14T09:17:47;2.70;99.90
59075;DHT22;44860;53.020;6.738;2023-02-14T09:20:14;2.70;99.90
59075;DHT22;44860;53.020;6.738;2023-02-14T09:22:40;2.80;99.90
59075;DHT22;44860;53.020;6.738;2023-02-14T09:25:06;2.90;99.90
59075;DHT22;44860;53.020;6.738;2023-02-14T09:27:31;3.00;99.90
59075;DHT22;44860;53.020;6.738;2023-02-14T09:29:57;3.10;99.90
59075;DHT22;44860;53.020;6.738;2023-02-14T09:32:23;3.20;99.90
59075;DHT22;44860;53.020;6.738;2023-02-14T09:34:50;3.30;99.90
59075;DHT22;44860;53.020;6.738;2023-02-14T09:37:35;3.40;99.90
59075;DHT22;44860;53.020;6.738;2023-02-14T09:40:00;3.50;99.90
59075;DHT22;44860;53.020;6.738;2023-02-14T09:45:14;3.70;99.90
59075;DHT22;44860;53.020;6.738;2023-02-14T09:47:51;3.80;99.90
59075;DHT22;44860;53.020;6.738;2023-02-14T09:50:29;3.80;99.90
59075;DHT22;44860;53.020;6.738;2023-02-14T09:58:33;4.10;99.90
59075;DHT22;44860;53.020;6.738;2023-02-14T10:01:16;4.30;99.90
59075;DHT22;44860;53.020;6.738;2023-02-14T10:04:05;4.40;99.90
59075;DHT22;44860;53.020;6.738;2023-02-14T10:06:48;4.50;99.90
59075;DHT22;44860;53.020;6.738;2023-02-14T10:09:39;4.60;99.90
59075;DHT22;44860;53.020;6.738;2023-02-14T10:12:36;4.70;99.90
59075;DHT22;44860;53.020;6.738;2023-02-14T10:15:03;4.90;99.90
59075;DHT22;44860;53.020;6.738;2023-02-14T10:17:45;5.00;99.90
59075;DHT22;44860;53.020;6.738;2023-02-14T10:20:22;5.10;99.90
59075;DHT22;44860;53.020;6.738;2023-02-14T10:22:59;5.20;99.90
59075;DHT22;44860;53.020;6.738;2023-02-14T10:25:32;5.20;99.90
59075;DHT22;44860;53.020;6.738;2023-02-14T10:28:01;5.30;99.90
59075;DHT22;44860;53.020;6.738;2023-02-14T10:30:35;5.40;99.90
59075;DHT22;44860;53.020;6.738;2023-02-14T10:33:16;5.40;99.90
59075;DHT22;44860;53.020;6.738;2023-02-14T10:44:18;5.80;99.90
59075;DHT22;44860;53.020;6.738;2023-02-14T10:52:57;6.00;99.90
59075;DHT22;44860;53.020;6.738;2023-02-14T10:55:42;6.10;99.90
59075;DHT22;44860;53.020;6.738;2023-02-14T10:58:13;6.20;99.90
59075;DHT22;44860;53.020;6.738;2023-02-14T11:00:49;6.30;99.90
59075;DHT22;44860;53.020;6.738;2023-02-14T11:03:16;6.50;99.90
59075;DHT22;44860;53.020;6.738;2023-02-14T11:05:46;6.50;99.90
59075;DHT22;44860;53.020;6.738;2023-02-14T11:08:25;6.60;99.90
59075;DHT22;44860;53.020;6.738;2023-02-14T11:10:54;6.70;99.90
59075;DHT22;44860;53.020;6.738;2023-02-14T11:13:35;6.80;99.90
59075;DHT22;44860;53.020;6.738;2023-02-14T11:16:18;7.00;99.90
59075;DHT22;44860;53.020;6.738;2023-02-14T11:18:43;7.10;99.90
59075;DHT22;44860;53.020;6.738;2023-02-14T11:23:38;7.30;99.90
59075;DHT22;44860;53.020;6.738;2023-02-14T11:26:08;7.40;99.90
59075;DHT22;44860;53.020;6.738;2023-02-14T11:28:37;7.50;99.90
59075;DHT22;44860;53.020;6.738;2023-02-14T11:31:08;7.60;99.90
59075;DHT22;44860;53.020;6.738;2023-02-14T11:33:38;7.60;99.90
59075;DHT22;44860;53.020;6.738;2023-02-14T11:36:12;7.70;99.90
59075;DHT22;44860;53.020;6.738;2023-02-14T11:38:40;7.80;99.90
59075;DHT22;44860;53.020;6.738;2023-02-14T11:41:09;8.00;99.90
59075;DHT22;44860;53.020;6.738;2023-02-14T11:43:42;8.10;99.90
59075;DHT22;44860;53.020;6.738;2023-02-14T11:51:29;8.50;99.90
59075;DHT22;44860;53.020;6.738;2023-02-14T11:53:58;8.60;99.90
59075;DHT22;44860;53.020;6.738;2023-02-14T11:56:52;8.70;99.90
59075;DHT22;44860;53.020;6.738;2023-02-14T11:59:46;8.80;99.90
59075;DHT22;44860;53.020;6.738;2023-02-14T12:02:38;9.00;99.90
59075;DHT22;44860;53.020;6.738;2023-02-14T12:05:16;9.10;99.90
59075;DHT22;44860;53.020;6.738;2023-02-14T12:07:45;9.20;99.90
59075;DHT22;44860;53.020;6.738;2023-02-14T12:13:42;9.40;99.90
59075;DHT22;44860;53.020;6.738;2023-02-14T12:15:52;9.50;99.90
59075;DHT22;44860;53.020;6.738;2023-02-14T12:23:42;9.80;99.90
59075;DHT22;44860;53.020;6.738;2023-02-14T12:26:37;9.80;99.90
59075;DHT22;44860;53.020;6.738;2023-02-14T12:31:53;10.10;99.90
59075;DHT22;44860;53.020;6.738;2023-02-14T12:34:20;10.20;99.90
59075;DHT22;44860;53.020;6.738;2023-02-14T12:36:59;10.30;99.90
59075;DHT22;44860;53.020;6.738;2023-02-14T12:39:41;10.40;99.90
59075;DHT22;44860;53.020;6.738;2023-02-14T12:45:24;10.60;99.90
59075;DHT22;44860;53.020;6.738;2023-02-14T12:48:28;10.70;99.90
59075;DHT22;44860;53.020;6.738;2023-02-14T13:01:50;11.20;99.90
59075;DHT22;44860;53.020;6.738;2023-02-14T13:07:36;11.20;99.90
59075;DHT22;44860;53.020;6.738;2023-02-14T13:12:41;11.40;99.90
59075;DHT22;44860;53.020;6.738;2023-02-14T13:17:55;11.50;99.90
59075;DHT22;44860;53.020;6.738;2023-02-14T13:22:54;11.70;99.90
59075;DHT22;44860;53.020;6.738;2023-02-14T13:25:29;11.80;99.90
59075;DHT22;44860;53.020;6.738;2023-02-14T13:28:00;11.80;99.90
59075;DHT22;44860;53.020;6.738;2023-02-14T13:30:35;11.80;99.90
59075;DHT22;44860;53.020;6.738;2023-02-14T13:33:06;11.80;99.90
59075;DHT22;44860;53.020;6.738;2023-02-14T13:35:33;11.90;99.90
59075;DHT22;44860;53.020;6.738;2023-02-14T13:38:06;11.90;99.90
59075;DHT22;44860;53.020;6.738;2023-02-14T13:40:33;11.90;99.90
59075;DHT22;44860;53.020;6.738;2023-02-14T13:43:01;12.00;99.90
59075;DHT22;44860;53.020;6.738;2023-02-14T13:48:20;12.10;99.90
59075;DHT22;44860;53.020;6.738;2023-02-14T13:50:53;12.10;99.90
59075;DHT22;44860;53.020;6.738;2023-02-14T13:53:42;12.10;99.90
59075;DHT22;44860;53.020;6.738;2023-02-14T14:01:39;12.20;99.90
59075;DHT22;44860;53.020;6.738;2023-02-14T14:17:34;12.30;99.90
59075;DHT22;44860;53.020;6.738;2023-02-14T14:20:03;12.30;99.90
59075;DHT22;44860;53.020;6.738;2023-02-14T14:22:54;12.30;99.90
59075;DHT22;44860;53.020;6.738;2023-02-14T14:25:40;12.30;99.90
59075;DHT22;44860;53.020;6.738;2023-02-14T14:28:11;12.30;99.90
59075;DHT22;44860;53.020;6.738;2023-02-14T14:30:37;12.30;99.90
59075;DHT22;44860;53.020;6.738;2023-02-14T14:33:15;12.30;99.90
59075;DHT22;44860;53.020;6.738;2023-02-14T14:35:52;12.30;99.90
59075;DHT22;44860;53.020;6.738;2023-02-14T14:38:18;12.30;99.90
59075;DHT22;44860;53.020;6.738;2023-02-14T14:40:46;12.30;99.90
59075;DHT22;44860;53.020;6.738;2023-02-14T14:45:39;12.30;99.90
59075;DHT22;44860;53.020;6.738;2023-02-14T14:48:34;12.30;99.90
59075;DHT22;44860;53.020;6.738;2023-02-14T14:51:02;12.20;99.90
59075;DHT22;44860;53.020;6.738;2023-02-14T14:53:49;12.20;99.90
59075;DHT22;44860;53.020;6.738;2023-02-14T14:56:22;12.20;99.90
59075;DHT22;44860;53.020;6.738;2023-02-14T14:58:48;12.20;99.90
59075;DHT22;44860;53.020;6.738;2023-02-14T15:01:36;12.20;99.90
59075;DHT22;44860;53.020;6.738;2023-02-14T15:04:24;12.10;99.90
59075;DHT22;44860;53.020;6.738;2023-02-14T15:06:50;12.10;99.90
59075;DHT22;44860;53.020;6.738;2023-02-14T15:09:21;12.10;99.90
59075;DHT22;44860;53.020;6.738;2023-02-14T15:11:48;12.10;99.90
59075;DHT22;44860;53.020;6.738;2023-02-14T15:14:36;12.00;99.90
59075;DHT22;44860;53.020;6.738;2023-02-14T15:17:21;12.00;99.90
59075;DHT22;44860;53.020;6.738;2023-02-14T15:20:03;11.90;99.90
59075;DHT22;44860;53.020;6.738;2023-02-14T15:25:10;11.90;99.90
59075;DHT22;44860;53.020;6.738;2023-02-14T15:27:40;11.80;99.90
59075;DHT22;44860;53.020;6.738;2023-02-14T15:30:20;11.80;99.90
59075;DHT22;44860;53.020;6.738;2023-02-14T15:32:49;11.70;99.90
59075;DHT22;44860;53.020;6.738;2023-02-14T15:35:17;11.70;99.90
59075;DHT22;44860;53.020;6.738;2023-02-14T15:37:44;11.60;99.90
59075;DHT22;44860;53.020;6.738;2023-02-14T15:40:22;11.60;99.90
59075;DHT22;44860;53.020;6.738;2023-02-14T15:42:50;11.50;99.90
59075;DHT22;44860;53.020;6.738;2023-02-14T15:45:30;11.50;99.90
59075;DHT22;44860;53.020;6.738;2023-02-14T15:48:05;11.40;99.90
59075;DHT22;44860;53.020;6.738;2023-02-14T15:50:51;11.30;99.90
59075;DHT22;44860;53.020;6.738;2023-02-14T15:55:47;11.10;99.90
59075;DHT22;44860;53.020;6.738;2023-02-14T15:58:20;10.90;99.90
59075;DHT22;44860;53.020;6.738;2023-02-14T16:00:47;10.80;99.90
59075;DHT22;44860;53.020;6.738;2023-02-14T16:03:28;10.70;99.90
59075;DHT22;44860;53.020;6.738;2023-02-14T16:05:55;10.60;99.90
59075;DHT22;44860;53.020;6.738;2023-02-14T16:11:05;10.40;99.90
59075;DHT22;44860;53.020;6.738;2023-02-14T16:13:38;10.30;99.90
59075;DHT22;44860;53.020;6.738;2023-02-14T16:16:08;10.20;99.90
59075;DHT22;44860;53.020;6.738;2023-02-14T16:18:47;10.10;99.90
59075;DHT22;44860;53.020;6.738;2023-02-14T16:26:44;9.70;99.90
59075;DHT22;44860;53.020;6.738;2023-02-14T16:29:12;9.50;99.90
59075;DHT22;44860;53.020;6.738;2023-02-14T16:31:44;9.40;99.90
59075;DHT22;44860;53.020;6.738;2023-02-14T16:34:11;9.30;99.90
59075;DHT22;44860;53.020;6.738;2023-02-14T16:36:37;9.20;99.90
59075;DHT22;44860;53.020;6.738;2023-02-14T16:39:04;9.10;99.90
59075;DHT22;44860;53.020;6.738;2023-02-14T16:41:32;8.90;99.90
59075;DHT22;44860;53.020;6.738;2023-02-14T16:43:58;8.80;99.90
59075;DHT22;44860;53.020;6.738;2023-02-14T16:46:28;8.70;99.90
59075;DHT22;44860;53.020;6.738;2023-02-14T16:48:55;8.60;99.90
59075;DHT22;44860;53.020;6.738;2023-02-14T16:51:23;8.50;99.90
59075;DHT22;44860;53.020;6.738;2023-02-14T16:53:50;8.40;99.90
59075;DHT22;44860;53.020;6.738;2023-02-14T16:56:20;8.40;99.90
59075;DHT22;44860;53.020;6.738;2023-02-14T16:58:47;8.30;99.90
59075;DHT22;44860;53.020;6.738;2023-02-14T17:01:13;8.20;99.90
59075;DHT22;44860;53.020;6.738;2023-02-14T17:03:38;8.10;99.90
59075;DHT22;44860;53.020;6.738;2023-02-14T17:06:10;8.00;99.90
59075;DHT22;44860;53.020;6.738;2023-02-14T17:08:38;7.90;99.90
59075;DHT22;44860;53.020;6.738;2023-02-14T17:11:04;7.80;99.90
59075;DHT22;44860;53.020;6.738;2023-02-14T17:13:32;7.80;99.90
59075;DHT22;44860;53.020;6.738;2023-02-14T17:15:59;7.70;99.90
59075;DHT22;44860;53.020;6.738;2023-02-14T17:18:27;7.60;99.90
59075;DHT22;44860;53.020;6.738;2023-02-14T17:20:55;7.50;99.90
59075;DHT22;44860;53.020;6.738;2023-02-14T17:23:20;7.50;99.90
59075;DHT22;44860;53.020;6.738;2023-02-14T17:25:48;7.40;99.90
59075;DHT22;44860;53.020;6.738;2023-02-14T17:28:14;7.30;99.90
59075;DHT22;44860;53.020;6.738;2023-02-14T17:30:40;7.20;99.90
59075;DHT22;44860;53.020;6.738;2023-02-14T17:33:06;7.10;99.90
59075;DHT22;44860;53.020;6.738;2023-02-14T17:35:34;7.00;99.90
59075;DHT22;44860;53.020;6.738;2023-02-14T17:38:00;6.90;99.90
59075;DHT22;44860;53.020;6.738;2023-02-14T17:40:27;6.90;99.90
59075;DHT22;44860;53.020;6.738;2023-02-14T17:42:53;6.80;99.90
59075;DHT22;44860;53.020;6.738;2023-02-14T17:45:19;6.80;99.90
59075;DHT22;44860;53.020;6.738;2023-02-14T17:47:44;6.70;99.90
59075;DHT22;44860;53.020;6.738;2023-02-14T17:50:11;6.60;99.90
59075;DHT22;44860;53.020;6.738;2023-02-14T17:52:38;6.50;99.90
59075;DHT22;44860;53.020;6.738;2023-02-14T17:55:05;6.50;99.90
59075;DHT22;44860;53.020;6.738;2023-02-14T17:57:31;6.50;99.90
59075;DHT22;44860;53.020;6.738;2023-02-14T17:59:56;6.40;99.90
59075;DHT22;44860;53.020;6.738;2023-02-14T18:02:23;6.40;99.90
59075;DHT22;44860;53.020;6.738;2023-02-14T18:04:49;6.30;99.90
59075;DHT22;44860;53.020;6.738;2023-02-14T18:07:15;6.30;99.90
59075;DHT22;44860;53.020;6.738;2023-02-14T18:09:41;6.20;99.90
59075;DHT22;44860;53.020;6.738;2023-02-14T18:12:07;6.10;99.90
59075;DHT22;44860;53.020;6.738;2023-02-14T18:14:34;6.10;99.90
59075;DHT22;44860;53.020;6.738;2023-02-14T18:17:00;6.00;99.90
59075;DHT22;44860;53.020;6.738;2023-02-14T18:19:26;5.90;99.90
59075;DHT22;44860;53.020;6.738;2023-02-14T18:21:52;5.90;99.90
59075;DHT22;44860;53.020;6.738;2023-02-14T18:24:18;5.90;99.90
59075;DHT22;44860;53.020;6.738;2023-02-14T18:26:44;5.80;99.90
59075;DHT22;44860;53.020;6.738;2023-02-14T18:29:10;5.70;99.90